Tyler, TX (75701)

1:11 AM CST on December 22, 2014 (GMT -0600)
McDonaldRd | Change Station
CLOSE
Current Station
Personal Weather Station
Location: Tyler, TX
Elevation: 623 ft
Nearby Weather Stations

Elev 623 ft 32.32 °N, 95.27 °W | Updated 4 minutes ago

Overcast
Overcast
50.2 °F
Feels Like 50.2 °F
N
4.0
Wind Variable Wind from SW
Gusts 8.0 mph

Today
High -- | Low -- °F
--% Chance of Precip.
Yesterday
High -- | Low -- °F
Precip. -- in
7:18 AM 5:20 PM
New Moon, 0% visible
Pressure 29.76 in
Visibility 10.0 miles
Clouds Mostly Cloudy 1200 ft
Overcast 3300 ft
Dew Point 48 °F
Humidity 93%
Rainfall 0.00 in
Snow Depth Not available.
UV 0 out of 12
Pollen 2.90 out of 12
Air Quality Not available.
Flu Activity Not available.
METAR KTYR 220653Z AUTO 17010G19KT 10SM BKN012 OVC033 11/08 A2977 RMK AO2 SLP077 T01110083

More Conditions Fewer Conditions

Pressure 29.76 in
Visibility 10.0 miles
Clouds Mostly Cloudy 1200 ft
Overcast 3300 ft
Dew Point 48 °F
Humidity 93%
Rainfall 0.00 in
Snow Depth Not available.
UV 0 out of 12
Pollen 2.90 out of 12
Air Quality Not available.
Flu Activity Not available.
METAR KTYR 220653Z AUTO 17010G19KT 10SM BKN012 OVC033 11/08 A2977 RMK AO2 SLP077 T01110083

More Conditions Fewer Conditions

10-Day Weather Forecast

Almanac

Astronomy

Dec. 22, 2014 Rise Set
Actual Time
Civil Twilight
Nautical Twilight
Astronomical Twilight
Moon
Length of Visible Light
Length of Day
Tomorrow will be .
, % of the Moon is Illuminated

Today's Extremes

State Highs State Lows

Community

WunderPhotos

Upload Photos

1,779,560 photos uploaded!

WunderBlogs® & News

Nearby

Air Quality

  Air Quality AQ Index Pollutant
Not available.

Snow Depth

Station Depth Elevation

Earthquake Activity

City Distance Mag. Time & Date
Minimum magnitude displayed is 2.5.

Coastal Water Temperatures

Place Temperature

Nearby Weather Stations